sensor_id;sensor_type;location;lat;lon;timestamp;pressure;altitude;pressure_sealevel;temperature;humidity
13952;BME280;39535;52.192;9.886;2023-02-16T00:01:30;101421.63;;;2.93;87.10
13952;BME280;39535;52.192;9.886;2023-02-16T00:03:58;101408.88;;;3.00;86.17
13952;BME280;39535;52.192;9.886;2023-02-16T00:06:26;101406.44;;;3.04;85.77
13952;BME280;39535;52.192;9.886;2023-02-16T00:08:55;101419.28;;;3.03;85.89
13952;BME280;39535;52.192;9.886;2023-02-16T00:11:27;101421.03;;;3.04;86.13
13952;BME280;39535;52.192;9.886;2023-02-16T00:14:13;101439.59;;;3.22;84.86
13952;BME280;39535;52.192;9.886;2023-02-16T00:16:39;101463.88;;;3.30;84.18
13952;BME280;39535;52.192;9.886;2023-02-16T00:19:17;101479.41;;;3.32;84.06
13952;BME280;39535;52.192;9.886;2023-02-16T00:21:44;101495.72;;;3.31;83.71
13952;BME280;39535;52.192;9.886;2023-02-16T00:24:12;101506.84;;;3.28;84.05
13952;BME280;39535;52.192;9.886;2023-02-16T00:26:39;101495.81;;;3.34;84.02
13952;BME280;39535;52.192;9.886;2023-02-16T00:29:06;101504.31;;;3.30;83.67
13952;BME280;39535;52.192;9.886;2023-02-16T00:31:34;101499.38;;;3.37;83.61
13952;BME280;39535;52.192;9.886;2023-02-16T00:34:14;101511.59;;;3.45;83.45
13952;BME280;39535;52.192;9.886;2023-02-16T00:36:40;101521.13;;;3.47;83.25
13952;BME280;39535;52.192;9.886;2023-02-16T00:39:07;101526.38;;;3.50;82.78
13952;BME280;39535;52.192;9.886;2023-02-16T00:41:34;101543.41;;;3.44;82.85
13952;BME280;39535;52.192;9.886;2023-02-16T00:44:19;101527.97;;;3.47;83.09
13952;BME280;39535;52.192;9.886;2023-02-16T00:46:46;101526.41;;;3.52;82.83
13952;BME280;39535;52.192;9.886;2023-02-16T00:49:13;101522.91;;;3.50;83.16
13952;BME280;39535;52.192;9.886;2023-02-16T00:51:40;101529.06;;;3.53;83.46
13952;BME280;39535;52.192;9.886;2023-02-16T00:54:06;101539.22;;;3.49;83.15
13952;BME280;39535;52.192;9.886;2023-02-16T00:56:34;101536.47;;;3.43;83.25
13952;BME280;39535;52.192;9.886;2023-02-16T00:59:02;101528.19;;;3.23;84.06
13952;BME280;39535;52.192;9.886;2023-02-16T01:01:32;101496.69;;;3.04;85.12
13952;BME280;39535;52.192;9.886;2023-02-16T01:04:04;101445.88;;;3.00;86.68
13952;BME280;39535;52.192;9.886;2023-02-16T01:06:31;101409.81;;;3.02;87.38
13952;BME280;39535;52.192;9.886;2023-02-16T01:09:17;101384.84;;;3.01;88.25
13952;BME280;39535;52.192;9.886;2023-02-16T01:12:11;101379.97;;;3.11;87.79
13952;BME280;39535;52.192;9.886;2023-02-16T01:14:38;101375.88;;;3.20;87.20
13952;BME280;39535;52.192;9.886;2023-02-16T01:17:05;101359.41;;;3.14;87.89
13952;BME280;39535;52.192;9.886;2023-02-16T01:19:31;101337.25;;;3.21;87.79
13952;BME280;39535;52.192;9.886;2023-02-16T01:21:57;101322.72;;;3.26;87.50
13952;BME280;39535;52.192;9.886;2023-02-16T01:24:24;101329.91;;;3.38;86.97
13952;BME280;39535;52.192;9.886;2023-02-16T01:26:50;101341.09;;;3.38;87.24
13952;BME280;39535;52.192;9.886;2023-02-16T01:29:19;101330.00;;;3.41;86.79
13952;BME280;39535;52.192;9.886;2023-02-16T01:31:46;101334.50;;;3.50;86.87
13952;BME280;39535;52.192;9.886;2023-02-16T01:34:13;101341.28;;;3.46;86.45
13952;BME280;39535;52.192;9.886;2023-02-16T01:36:42;101342.13;;;3.45;86.45
13952;BME280;39535;52.192;9.886;2023-02-16T01:39:10;101344.88;;;3.51;86.51
13952;BME280;39535;52.192;9.886;2023-02-16T01:41:45;101346.06;;;3.66;86.14
13952;BME280;39535;52.192;9.886;2023-02-16T01:44:21;101355.63;;;3.70;86.22
13952;BME280;39535;52.192;9.886;2023-02-16T01:46:51;101372.16;;;3.78;85.45
13952;BME280;39535;52.192;9.886;2023-02-16T01:49:20;101381.88;;;3.88;85.28
13952;BME280;39535;52.192;9.886;2023-02-16T01:51:52;101401.56;;;3.83;85.09
13952;BME280;39535;52.192;9.886;2023-02-16T01:54:30;101410.41;;;3.93;84.73
13952;BME280;39535;52.192;9.886;2023-02-16T01:56:59;101421.03;;;3.70;85.11
13952;BME280;39535;52.192;9.886;2023-02-16T01:59:38;101399.56;;;3.71;85.78
13952;BME280;39535;52.192;9.886;2023-02-16T02:02:11;101396.03;;;3.68;85.67
13952;BME280;39535;52.192;9.886;2023-02-16T02:04:43;101378.97;;;3.73;86.16
13952;BME280;39535;52.192;9.886;2023-02-16T02:07:33;101376.03;;;3.61;86.44
13952;BME280;39535;52.192;9.886;2023-02-16T02:10:07;101368.28;;;3.59;86.59
13952;BME280;39535;52.192;9.886;2023-02-16T02:12:40;101358.78;;;3.58;87.07
13952;BME280;39535;52.192;9.886;2023-02-16T02:15:16;101340.19;;;3.71;87.49
13952;BME280;39535;52.192;9.886;2023-02-16T02:17:43;101346.22;;;3.72;87.02
13952;BME280;39535;52.192;9.886;2023-02-16T02:20:15;101352.22;;;3.71;86.70
13952;BME280;39535;52.192;9.886;2023-02-16T02:23:21;101354.19;;;3.81;86.33
13952;BME280;39535;52.192;9.886;2023-02-16T02:26:29;101342.03;;;3.78;86.10
13952;BME280;39535;52.192;9.886;2023-02-16T02:29:05;101336.16;;;3.83;86.40
13952;BME280;39535;52.192;9.886;2023-02-16T02:31:46;101333.53;;;3.81;86.06
13952;BME280;39535;52.192;9.886;2023-02-16T02:34:22;101335.47;;;3.91;86.23
13952;BME280;39535;52.192;9.886;2023-02-16T02:37:02;101347.41;;;3.86;86.06
13952;BME280;39535;52.192;9.886;2023-02-16T02:39:34;101343.09;;;3.85;86.20
13952;BME280;39535;52.192;9.886;2023-02-16T02:42:08;101346.56;;;3.87;86.16
13952;BME280;39535;52.192;9.886;2023-02-16T02:44:39;101337.06;;;3.86;86.03
13952;BME280;39535;52.192;9.886;2023-02-16T02:47:07;101344.81;;;3.86;86.04
13952;BME280;39535;52.192;9.886;2023-02-16T02:49:34;101341.28;;;3.81;85.99
13952;BME280;39535;52.192;9.886;2023-02-16T02:52:00;101330.84;;;3.78;86.72
13952;BME280;39535;52.192;9.886;2023-02-16T02:54:29;101323.19;;;3.81;86.52
13952;BME280;39535;52.192;9.886;2023-02-16T02:57:18;101316.94;;;3.71;87.04
13952;BME280;39535;52.192;9.886;2023-02-16T03:00:06;101303.31;;;3.77;87.35
13952;BME280;39535;52.192;9.886;2023-02-16T03:02:54;101296.59;;;3.85;87.13
13952;BME280;39535;52.192;9.886;2023-02-16T03:05:23;101291.53;;;3.90;87.16
13952;BME280;39535;52.192;9.886;2023-02-16T03:07:54;101284.81;;;3.98;87.07
13952;BME280;39535;52.192;9.886;2023-02-16T03:10:32;101309.81;;;3.99;87.03
13952;BME280;39535;52.192;9.886;2023-02-16T03:13:21;101317.78;;;4.10;86.63
13952;BME280;39535;52.192;9.886;2023-02-16T03:15:49;101324.16;;;4.26;86.07
13952;BME280;39535;52.192;9.886;2023-02-16T03:18:23;101343.31;;;4.35;85.82
13952;BME280;39535;52.192;9.886;2023-02-16T03:21:10;101372.63;;;4.36;85.39
13952;BME280;39535;52.192;9.886;2023-02-16T03:23:57;101387.22;;;4.34;84.87
13952;BME280;39535;52.192;9.886;2023-02-16T03:26:43;101394.91;;;4.31;84.80
13952;BME280;39535;52.192;9.886;2023-02-16T03:29:29;101392.34;;;4.31;84.85
13952;BME280;39535;52.192;9.886;2023-02-16T03:31:56;101393.25;;;4.33;84.74
13952;BME280;39535;52.192;9.886;2023-02-16T03:34:23;101399.09;;;4.26;85.20
13952;BME280;39535;52.192;9.886;2023-02-16T03:36:52;101399.09;;;4.24;85.00
13952;BME280;39535;52.192;9.886;2023-02-16T03:39:23;101400.88;;;4.27;85.18
13952;BME280;39535;52.192;9.886;2023-02-16T03:41:51;101401.69;;;4.24;84.54
13952;BME280;39535;52.192;9.886;2023-02-16T03:44:18;101411.16;;;4.25;84.65
13952;BME280;39535;52.192;9.886;2023-02-16T03:46:47;101418.09;;;4.28;84.57
13952;BME280;39535;52.192;9.886;2023-02-16T03:49:14;101424.31;;;4.36;84.57
13952;BME280;39535;52.192;9.886;2023-02-16T03:51:40;101420.72;;;4.29;84.75
13952;BME280;39535;52.192;9.886;2023-02-16T03:54:06;101422.53;;;4.33;84.65
13952;BME280;39535;52.192;9.886;2023-02-16T03:56:33;101436.13;;;4.25;83.95
13952;BME280;39535;52.192;9.886;2023-02-16T03:58:59;101439.59;;;4.25;84.23
13952;BME280;39535;52.192;9.886;2023-02-16T04:01:25;101459.44;;;4.28;83.40
13952;BME280;39535;52.192;9.886;2023-02-16T04:03:53;101467.72;;;4.13;83.72
13952;BME280;39535;52.192;9.886;2023-02-16T04:06:19;101460.94;;;4.18;83.58
13952;BME280;39535;52.192;9.886;2023-02-16T04:08:46;101463.28;;;4.07;83.79
13952;BME280;39535;52.192;9.886;2023-02-16T04:11:12;101467.16;;;3.90;83.61
13952;BME280;39535;52.192;9.886;2023-02-16T04:13:56;101462.84;;;3.89;83.99
13952;BME280;39535;52.192;9.886;2023-02-16T04:16:22;101455.09;;;3.90;83.75
13952;BME280;39535;52.192;9.886;2023-02-16T04:18:49;101464.53;;;3.88;83.65
13952;BME280;39535;52.192;9.886;2023-02-16T04:21:16;101460.88;;;3.80;84.23
13952;BME280;39535;52.192;9.886;2023-02-16T04:23:43;101465.66;;;3.65;84.14
13952;BME280;39535;52.192;9.886;2023-02-16T04:26:09;101450.00;;;3.57;84.82
13952;BME280;39535;52.192;9.886;2023-02-16T04:28:35;101436.94;;;3.52;84.87
13952;BME280;39535;52.192;9.886;2023-02-16T04:31:02;101435.97;;;3.47;85.01
13952;BME280;39535;52.192;9.886;2023-02-16T04:33:28;101439.09;;;3.35;84.96
13952;BME280;39535;52.192;9.886;2023-02-16T04:35:54;101429.97;;;3.16;85.25
13952;BME280;39535;52.192;9.886;2023-02-16T04:38:22;101420.72;;;3.25;85.57
13952;BME280;39535;52.192;9.886;2023-02-16T04:40:50;101428.06;;;3.09;85.01
13952;BME280;39535;52.192;9.886;2023-02-16T04:43:16;101409.38;;;3.18;85.62
13952;BME280;39535;52.192;9.886;2023-02-16T04:45:42;101407.53;;;2.82;86.41
13952;BME280;39535;52.192;9.886;2023-02-16T04:48:09;101362.41;;;2.66;88.36
13952;BME280;39535;52.192;9.886;2023-02-16T04:50:35;101306.06;;;2.48;90.31
13952;BME280;39535;52.192;9.886;2023-02-16T04:53:01;101253.28;;;2.34;90.96
13952;BME280;39535;52.192;9.886;2023-02-16T04:55:29;101207.63;;;2.30;92.99
13952;BME280;39535;52.192;9.886;2023-02-16T04:57:56;101139.53;;;2.53;93.44
13952;BME280;39535;52.192;9.886;2023-02-16T05:00:22;101134.69;;;2.64;93.59
13952;BME280;39535;52.192;9.886;2023-02-16T05:02:48;101124.47;;;2.69;92.65
13952;BME280;39535;52.192;9.886;2023-02-16T05:05:15;101116.09;;;2.79;92.68
13952;BME280;39535;52.192;9.886;2023-02-16T05:07:41;101123.88;;;2.81;92.06
13952;BME280;39535;52.192;9.886;2023-02-16T05:10:08;101136.88;;;2.85;91.83
13952;BME280;39535;52.192;9.886;2023-02-16T05:12:36;101137.09;;;2.94;91.46
13952;BME280;39535;52.192;9.886;2023-02-16T05:15:20;101149.38;;;3.05;91.50
13952;BME280;39535;52.192;9.886;2023-02-16T05:17:47;101160.72;;;3.13;90.68
13952;BME280;39535;52.192;9.886;2023-02-16T05:20:13;101163.63;;;3.25;90.59
13952;BME280;39535;52.192;9.886;2023-02-16T05:22:39;101193.91;;;3.34;89.95
13952;BME280;39535;52.192;9.886;2023-02-16T05:25:07;101209.53;;;3.40;89.25
13952;BME280;39535;52.192;9.886;2023-02-16T05:27:34;101234.59;;;3.46;88.47
13952;BME280;39535;52.192;9.886;2023-02-16T05:30:02;101267.31;;;3.47;88.19
13952;BME280;39535;52.192;9.886;2023-02-16T05:32:28;101286.28;;;3.49;87.65
13952;BME280;39535;52.192;9.886;2023-02-16T05:34:54;101304.66;;;3.26;87.37
13952;BME280;39535;52.192;9.886;2023-02-16T05:37:21;101299.13;;;3.11;88.31
13952;BME280;39535;52.192;9.886;2023-02-16T05:39:47;101289.72;;;3.13;88.67
13952;BME280;39535;52.192;9.886;2023-02-16T05:42:13;101289.00;;;3.18;88.68
13952;BME280;39535;52.192;9.886;2023-02-16T05:44:40;101303.16;;;3.01;88.12
13952;BME280;39535;52.192;9.886;2023-02-16T05:47:07;101293.66;;;2.98;88.51
13952;BME280;39535;52.192;9.886;2023-02-16T05:49:34;101294.91;;;2.81;88.72
13952;BME280;39535;52.192;9.886;2023-02-16T05:52:00;101282.06;;;2.83;88.80
13952;BME280;39535;52.192;9.886;2023-02-16T05:54:26;101283.06;;;2.88;88.70
13952;BME280;39535;52.192;9.886;2023-02-16T05:56:53;101285.50;;;2.82;88.23
13952;BME280;39535;52.192;9.886;2023-02-16T05:59:19;101267.09;;;2.69;89.46
13952;BME280;39535;52.192;9.886;2023-02-16T06:01:46;101251.63;;;2.68;89.61
13952;BME280;39535;52.192;9.886;2023-02-16T06:04:13;101252.19;;;2.57;89.12
13952;BME280;39535;52.192;9.886;2023-02-16T06:06:40;101239.50;;;2.65;90.34
13952;BME280;39535;52.192;9.886;2023-02-16T06:09:07;101224.94;;;2.67;89.94
13952;BME280;39535;52.192;9.886;2023-02-16T06:11:34;101231.72;;;2.62;90.19
13952;BME280;39535;52.192;9.886;2023-02-16T06:14:05;101233.53;;;2.66;90.28
13952;BME280;39535;52.192;9.886;2023-02-16T06:16:32;101233.63;;;2.71;90.20
13952;BME280;39535;52.192;9.886;2023-02-16T06:19:00;101236.00;;;2.63;89.83
13952;BME280;39535;52.192;9.886;2023-02-16T06:21:28;101232.75;;;2.37;90.28
13952;BME280;39535;52.192;9.886;2023-02-16T06:23:55;101208.75;;;2.38;90.77
13952;BME280;39535;52.192;9.886;2023-02-16T06:26:21;101211.34;;;2.39;91.75
13952;BME280;39535;52.192;9.886;2023-02-16T06:28:47;101203.00;;;2.48;92.03
13952;BME280;39535;52.192;9.886;2023-02-16T06:31:14;101193.16;;;2.67;91.24
13952;BME280;39535;52.192;9.886;2023-02-16T06:33:40;101203.19;;;2.56;91.34
13952;BME280;39535;52.192;9.886;2023-02-16T06:36:07;101208.47;;;2.61;91.08
13952;BME280;39535;52.192;9.886;2023-02-16T06:38:35;101206.53;;;2.52;90.75
13952;BME280;39535;52.192;9.886;2023-02-16T06:41:02;101206.03;;;2.67;90.91
13952;BME280;39535;52.192;9.886;2023-02-16T06:43:28;101223.13;;;2.63;90.63
13952;BME280;39535;52.192;9.886;2023-02-16T06:45:54;101236.22;;;2.71;90.33
13952;BME280;39535;52.192;9.886;2023-02-16T06:48:21;101239.03;;;2.80;90.03
13952;BME280;39535;52.192;9.886;2023-02-16T06:50:47;101245.16;;;2.84;89.35
13952;BME280;39535;52.192;9.886;2023-02-16T06:53:14;101265.03;;;2.88;89.15
13952;BME280;39535;52.192;9.886;2023-02-16T06:55:41;101277.91;;;2.88;89.01
13952;BME280;39535;52.192;9.886;2023-02-16T06:58:08;101281.25;;;2.85;88.98
13952;BME280;39535;52.192;9.886;2023-02-16T07:00:34;101279.59;;;2.87;88.44
13952;BME280;39535;52.192;9.886;2023-02-16T07:03:01;101289.03;;;2.87;88.51
13952;BME280;39535;52.192;9.886;2023-02-16T07:05:27;101290.97;;;2.94;88.89
13952;BME280;39535;52.192;9.886;2023-02-16T07:07:54;101295.25;;;2.93;88.43
13952;BME280;39535;52.192;9.886;2023-02-16T07:10:20;101307.81;;;2.81;88.57
13952;BME280;39535;52.192;9.886;2023-02-16T07:12:48;101294.69;;;2.72;89.04
13952;BME280;39535;52.192;9.886;2023-02-16T07:15:14;101285.44;;;2.80;89.16
13952;BME280;39535;52.192;9.886;2023-02-16T07:17:41;101288.28;;;2.91;88.27
13952;BME280;39535;52.192;9.886;2023-02-16T07:20:08;101293.66;;;2.98;88.19
13952;BME280;39535;52.192;9.886;2023-02-16T07:22:36;101295.28;;;2.95;88.53
13952;BME280;39535;52.192;9.886;2023-02-16T07:25:03;101303.16;;;3.00;88.65
13952;BME280;39535;52.192;9.886;2023-02-16T07:27:29;101307.47;;;3.01;87.99
13952;BME280;39535;52.192;9.886;2023-02-16T07:29:57;101317.16;;;3.09;87.74
13952;BME280;39535;52.192;9.886;2023-02-16T07:32:23;101345.00;;;3.23;86.77
13952;BME280;39535;52.192;9.886;2023-02-16T07:34:49;101364.25;;;3.35;86.08
13952;BME280;39535;52.192;9.886;2023-02-16T07:37:16;101401.59;;;3.50;84.96
13952;BME280;39535;52.192;9.886;2023-02-16T07:39:42;101428.44;;;3.56;84.05
13952;BME280;39535;52.192;9.886;2023-02-16T07:42:08;101434.50;;;3.58;84.11
13952;BME280;39535;52.192;9.886;2023-02-16T07:44:35;101436.97;;;3.54;85.38
13952;BME280;39535;52.192;9.886;2023-02-16T07:47:02;101431.03;;;3.56;85.87
13952;BME280;39535;52.192;9.886;2023-02-16T07:49:29;101401.72;;;3.54;86.18
13952;BME280;39535;52.192;9.886;2023-02-16T07:51:55;101395.06;;;3.64;85.57
13952;BME280;39535;52.192;9.886;2023-02-16T07:54:21;101415.09;;;3.73;84.96
13952;BME280;39535;52.192;9.886;2023-02-16T07:56:48;101407.56;;;3.82;84.16
13952;BME280;39535;52.192;9.886;2023-02-16T07:59:14;101419.81;;;3.89;84.23
13952;BME280;39535;52.192;9.886;2023-02-16T08:01:41;101419.25;;;4.03;84.05
13952;BME280;39535;52.192;9.886;2023-02-16T08:04:09;101437.09;;;4.28;84.46
13952;BME280;39535;52.192;9.886;2023-02-16T08:06:35;101434.22;;;4.54;85.61
13952;BME280;39535;52.192;9.886;2023-02-16T08:09:02;101418.06;;;4.66;85.00
13952;BME280;39535;52.192;9.886;2023-02-16T08:11:28;101457.31;;;4.86;82.29
13952;BME280;39535;52.192;9.886;2023-02-16T08:13:57;101467.00;;;4.96;81.87
13952;BME280;39535;52.192;9.886;2023-02-16T08:16:25;101528.31;;;5.00;81.97
13952;BME280;39535;52.192;9.886;2023-02-16T08:18:54;101533.53;;;5.03;82.36
13952;BME280;39535;52.192;9.886;2023-02-16T08:21:24;101525.03;;;5.09;81.84
13952;BME280;39535;52.192;9.886;2023-02-16T08:23:53;101577.44;;;4.98;79.50
13952;BME280;39535;52.192;9.886;2023-02-16T08:26:21;101563.28;;;5.22;84.21
13952;BME280;39535;52.192;9.886;2023-02-16T08:28:48;101586.19;;;5.05;77.91
13952;BME280;39535;52.192;9.886;2023-02-16T08:31:17;101638.81;;;5.04;78.12
13952;BME280;39535;52.192;9.886;2023-02-16T08:33:45;101634.81;;;5.18;80.17
13952;BME280;39535;52.192;9.886;2023-02-16T08:36:18;101647.66;;;5.14;79.36
13952;BME280;39535;52.192;9.886;2023-02-16T08:38:47;101643.44;;;5.19;78.72
13952;BME280;39535;52.192;9.886;2023-02-16T08:41:14;101669.19;;;5.11;77.69
13952;BME280;39535;52.192;9.886;2023-02-16T08:43:41;101691.50;;;5.08;76.48
13952;BME280;39535;52.192;9.886;2023-02-16T08:46:07;101722.41;;;5.02;75.81
13952;BME280;39535;52.192;9.886;2023-02-16T08:48:34;101748.34;;;5.05;75.90
13952;BME280;39535;52.192;9.886;2023-02-16T08:51:01;101741.50;;;5.07;76.58
13952;BME280;39535;52.192;9.886;2023-02-16T08:53:31;101738.09;;;5.08;76.34
13952;BME280;39535;52.192;9.886;2023-02-16T08:56:00;101716.81;;;5.20;76.95
13952;BME280;39535;52.192;9.886;2023-02-16T08:58:28;101680.00;;;5.33;77.54
13952;BME280;39535;52.192;9.886;2023-02-16T09:00:54;101675.91;;;5.43;77.13
13952;BME280;39535;52.192;9.886;2023-02-16T09:03:21;101681.22;;;5.49;76.37
13952;BME280;39535;52.192;9.886;2023-02-16T09:05:48;101729.44;;;5.44;75.07
13952;BME280;39535;52.192;9.886;2023-02-16T09:08:15;101725.34;;;5.53;75.98
13952;BME280;39535;52.192;9.886;2023-02-16T09:10:42;101693.81;;;5.71;79.48
13952;BME280;39535;52.192;9.886;2023-02-16T09:13:10;101684.34;;;5.73;76.18
13952;BME280;39535;52.192;9.886;2023-02-16T09:15:38;101712.75;;;5.70;74.12
13952;BME280;39535;52.192;9.886;2023-02-16T09:18:06;101701.88;;;5.85;77.61
13952;BME280;39535;52.192;9.886;2023-02-16T09:20:35;101672.06;;;6.06;77.53
13952;BME280;39535;52.192;9.886;2023-02-16T09:23:03;101713.38;;;5.98;73.42
13952;BME280;39535;52.192;9.886;2023-02-16T09:25:29;101777.47;;;6.05;72.20
13952;BME280;39535;52.192;9.886;2023-02-16T09:27:55;101806.06;;;6.10;72.90
13952;BME280;39535;52.192;9.886;2023-02-16T09:30:23;101800.31;;;6.23;72.60
13952;BME280;39535;52.192;9.886;2023-02-16T09:32:49;101810.59;;;6.19;71.80
13952;BME280;39535;52.192;9.886;2023-02-16T09:35:16;101837.38;;;6.19;72.26
13952;BME280;39535;52.192;9.886;2023-02-16T09:37:42;101857.41;;;6.26;72.59
13952;BME280;39535;52.192;9.886;2023-02-16T09:40:11;101843.66;;;6.29;71.88
13952;BME280;39535;52.192;9.886;2023-02-16T09:42:49;101853.28;;;6.34;73.34
13952;BME280;39535;52.192;9.886;2023-02-16T09:45:18;101828.41;;;6.44;73.92
13952;BME280;39535;52.192;9.886;2023-02-16T09:47:49;101814.75;;;6.53;74.20
13952;BME280;39535;52.192;9.886;2023-02-16T09:50:19;101816.44;;;6.51;73.11
13952;BME280;39535;52.192;9.886;2023-02-16T09:52:49;101801.19;;;6.66;74.91
13952;BME280;39535;52.192;9.886;2023-02-16T09:55:19;101781.41;;;6.73;74.58
13952;BME280;39535;52.192;9.886;2023-02-16T09:58:01;101753.00;;;6.81;74.74
13952;BME280;39535;52.192;9.886;2023-02-16T10:00:42;101776.41;;;6.85;73.51
13952;BME280;39535;52.192;9.886;2023-02-16T10:03:21;101813.63;;;6.84;70.85
13952;BME280;39535;52.192;9.886;2023-02-16T10:05:57;101856.19;;;6.94;72.76
13952;BME280;39535;52.192;9.886;2023-02-16T10:08:31;101875.94;;;6.86;69.38
13952;BME280;39535;52.192;9.886;2023-02-16T10:11:04;101927.19;;;6.97;70.49
13952;BME280;39535;52.192;9.886;2023-02-16T10:13:57;101933.97;;;6.89;70.16
13952;BME280;39535;52.192;9.886;2023-02-16T10:16:29;101931.75;;;7.08;70.63
13952;BME280;39535;52.192;9.886;2023-02-16T10:18:59;101919.41;;;6.96;68.38
13952;BME280;39535;52.192;9.886;2023-02-16T10:21:28;101939.38;;;7.00;69.17
13952;BME280;39535;52.192;9.886;2023-02-16T10:23:57;101969.31;;;6.83;69.02
13952;BME280;39535;52.192;9.886;2023-02-16T10:26:31;101959.25;;;7.00;69.98
13952;BME280;39535;52.192;9.886;2023-02-16T10:29:02;101955.72;;;6.94;68.99
13952;BME280;39535;52.192;9.886;2023-02-16T10:31:37;101949.78;;;7.00;70.53
13952;BME280;39535;52.192;9.886;2023-02-16T10:34:17;101930.09;;;7.13;70.48
13952;BME280;39535;52.192;9.886;2023-02-16T10:37:01;101914.44;;;7.08;69.90
13952;BME280;39535;52.192;9.886;2023-02-16T10:39:34;101927.53;;;7.14;69.30
13952;BME280;39535;52.192;9.886;2023-02-16T10:42:10;101929.91;;;7.02;68.67
13952;BME280;39535;52.192;9.886;2023-02-16T10:44:44;101923.78;;;6.99;69.40
13952;BME280;39535;52.192;9.886;2023-02-16T10:47:20;101907.59;;;7.12;70.02
13952;BME280;39535;52.192;9.886;2023-02-16T10:49:49;101885.88;;;7.08;69.24
13952;BME280;39535;52.192;9.886;2023-02-16T10:52:16;101892.09;;;7.16;70.10
13952;BME280;39535;52.192;9.886;2023-02-16T10:54:43;101880.19;;;7.28;70.19
13952;BME280;39535;52.192;9.886;2023-02-16T10:57:19;101895.91;;;7.37;69.62
13952;BME280;39535;52.192;9.886;2023-02-16T10:59:50;101879.63;;;7.46;68.98
13952;BME280;39535;52.192;9.886;2023-02-16T11:02:22;101901.44;;;7.55;69.89
13952;BME280;39535;52.192;9.886;2023-02-16T11:04:52;101909.97;;;7.48;66.61
13952;BME280;39535;52.192;9.886;2023-02-16T11:07:21;101947.22;;;7.49;67.75
13952;BME280;39535;52.192;9.886;2023-02-16T11:09:49;101958.06;;;7.26;66.83
13952;BME280;39535;52.192;9.886;2023-02-16T11:12:24;101948.53;;;7.27;67.83
13952;BME280;39535;52.192;9.886;2023-02-16T11:14:53;101963.22;;;7.25;68.08
13952;BME280;39535;52.192;9.886;2023-02-16T11:17:21;101962.03;;;7.09;68.98
13952;BME280;39535;52.192;9.886;2023-02-16T11:19:52;101945.72;;;7.14;69.13
13952;BME280;39535;52.192;9.886;2023-02-16T11:22:28;101932.81;;;7.18;69.12
13952;BME280;39535;52.192;9.886;2023-02-16T11:24:55;101941.22;;;7.06;70.10
13952;BME280;39535;52.192;9.886;2023-02-16T11:27:24;101912.00;;;7.16;70.47
13952;BME280;39535;52.192;9.886;2023-02-16T11:30:13;101876.53;;;7.18;70.24
13952;BME280;39535;52.192;9.886;2023-02-16T11:32:46;101888.53;;;7.10;69.72
13952;BME280;39535;52.192;9.886;2023-02-16T11:35:14;101871.25;;;7.12;69.49
13952;BME280;39535;52.192;9.886;2023-02-16T11:37:42;101861.72;;;7.12;69.52
13952;BME280;39535;52.192;9.886;2023-02-16T11:40:18;101872.31;;;7.25;71.14
13952;BME280;39535;52.192;9.886;2023-02-16T11:42:46;101852.50;;;7.30;69.76
13952;BME280;39535;52.192;9.886;2023-02-16T11:45:23;101854.50;;;7.46;70.51
13952;BME280;39535;52.192;9.886;2023-02-16T11:47:52;101834.75;;;7.56;68.74
13952;BME280;39535;52.192;9.886;2023-02-16T11:50:23;101888.19;;;7.40;68.34
13952;BME280;39535;52.192;9.886;2023-02-16T11:52:52;101887.34;;;7.43;69.22
13952;BME280;39535;52.192;9.886;2023-02-16T11:55:23;101897.84;;;7.49;68.62
13952;BME280;39535;52.192;9.886;2023-02-16T11:57:51;101891.88;;;7.54;68.67
13952;BME280;39535;52.192;9.886;2023-02-16T12:00:20;101905.97;;;7.69;68.25
13952;BME280;39535;52.192;9.886;2023-02-16T12:06:13;101935.44;;;7.68;68.08
13952;BME280;39535;52.192;9.886;2023-02-16T12:09:08;101928.63;;;7.76;67.80
13952;BME280;39535;52.192;9.886;2023-02-16T12:11:44;101936.59;;;7.85;67.56
13952;BME280;39535;52.192;9.886;2023-02-16T12:14:22;101932.63;;;8.07;67.15
13952;BME280;39535;52.192;9.886;2023-02-16T12:16:59;101923.53;;;8.39;65.68
13952;BME280;39535;52.192;9.886;2023-02-16T12:19:37;101983.38;;;8.39;64.59
13952;BME280;39535;52.192;9.886;2023-02-16T12:22:17;102015.31;;;8.30;64.30
13952;BME280;39535;52.192;9.886;2023-02-16T12:24:55;102035.09;;;8.20;65.94
13952;BME280;39535;52.192;9.886;2023-02-16T12:27:29;102025.28;;;8.02;64.65
13952;BME280;39535;52.192;9.886;2023-02-16T12:30:03;102036.09;;;8.27;65.48
13952;BME280;39535;52.192;9.886;2023-02-16T12:32:43;102025.88;;;8.39;64.20
13952;BME280;39535;52.192;9.886;2023-02-16T12:35:28;102048.41;;;8.37;63.35
13952;BME280;39535;52.192;9.886;2023-02-16T12:38:07;102067.69;;;8.47;64.72
13952;BME280;39535;52.192;9.886;2023-02-16T12:40:45;102044.66;;;8.74;64.87
13952;BME280;39535;52.192;9.886;2023-02-16T12:43:27;102050.88;;;8.83;63.92
13952;BME280;39535;52.192;9.886;2023-02-16T12:46:00;102058.69;;;8.86;63.49
13952;BME280;39535;52.192;9.886;2023-02-16T12:48:37;102076.13;;;8.90;62.84
13952;BME280;39535;52.192;9.886;2023-02-16T12:51:09;102082.56;;;9.15;62.88
13952;BME280;39535;52.192;9.886;2023-02-16T12:53:45;102085.25;;;9.23;62.66
13952;BME280;39535;52.192;9.886;2023-02-16T12:56:17;102092.22;;;9.25;61.24
13952;BME280;39535;52.192;9.886;2023-02-16T12:58:48;102126.94;;;9.20;61.33
13952;BME280;39535;52.192;9.886;2023-02-16T13:01:22;102149.97;;;8.93;60.88
13952;BME280;39535;52.192;9.886;2023-02-16T13:03:54;102127.38;;;8.91;62.56
13952;BME280;39535;52.192;9.886;2023-02-16T13:06:23;102086.91;;;9.14;64.66
13952;BME280;39535;52.192;9.886;2023-02-16T13:09:01;102066.19;;;9.25;64.38
13952;BME280;39535;52.192;9.886;2023-02-16T13:11:33;102006.22;;;9.21;63.05
13952;BME280;39535;52.192;9.886;2023-02-16T13:14:05;102039.06;;;9.09;63.44
13952;BME280;39535;52.192;9.886;2023-02-16T13:16:41;101988.94;;;9.29;66.23
13952;BME280;39535;52.192;9.886;2023-02-16T13:19:10;101979.41;;;9.32;65.62
13952;BME280;39535;52.192;9.886;2023-02-16T13:24:34;101968.91;;;9.25;63.69